Friday, August 22, 2014
06:01 UTC
  |  Log In   |  Register Free
Airport Search:

Alpena County Regional Airport
(KAPN)

FAA data valid effective July 24, 2014 until September 18, 2014 (unless otherwise noted).

 
 
 
 
 
 
 
 
 
 
 
 
 
 

Current Aviation Weather for Alpena County Regional Airport (KAPN)

The most recent METAR observation for KAPN was updated at: 1754 UTC
METAR Summary (Translated METAR)
KAPN
281754Z AUTO 34011KT 10SM OVC038 15/08 A2998 RMK AO2 SLP153 T01500078 10156 20133 51005
KPZQ
(22.4 nm NW from KAPN)
281834Z AUTO 31013G18KT 10SM OVC045 16/10 A3000 RMK AO2 T01610101
TAF Summary (Translated TAF)
KAPN
220523Z 2206/2306 00000KT 1SM BR SCT003 TEMPO 2206/2209 1/4SM FG VV002 FM220900 00000KT 1/2SM FG BKN003 FM221100 00000KT 2SM BR SCT005 FM221400 11006KT P6SM BKN030
  Airport Weather Conditions for KAPN

 Current Weather at APN
60° F
Fog
North winds at 0.0 mph
APN NOAA Radar

Pressure: 30.01 in
Humidity: 96%
Wind: Calm
Dew Point: 59.0°F
Visibility: 0.50 mi


Airport Weather Forecast for KAPN

Translated METAR and TAF for KAPN
Translated METAR for KAPN (0554 UTC 22 August 2014)
found at http://aviationweather.gov/adds/metars/
 
METAR text: KAPN 220523Z AUTO 00000KT 1/4SM FG VV002 16/16 A3001 RMK AO2 T01560156
Conditions at: KAPN (ALPENA , MI, US) observed 0523 UTC 22 August 2014
Temperature: 15.6°C (60°F)
Dewpoint: 15.6°C (60°F) [RH = 100%]
Pressure (altimeter): 30.01 inches Hg (1016.3 mb)
Winds: calm
Visibility: 0.25 miles (0.40 km)
Ceiling: indefinite ceiling with vertical visibility of 200 feet AGL
Clouds: obscured sky
Weather: FG  (fog)
Translated TAF for KAPN
Forecast for: KAPN (ALPENA , MI, US)
TAF Text: KAPN 220523Z 2206/2306 00000KT 1SM BR SCT003
Forecast period: 0600 to 0900 UTC 22 August 2014
Forecast type: FROM: standard forecast or significant change
Winds: calm
Visibility: 1.00 miles (1.61 km)
Clouds: scattered clouds at 300 feet AGL
Weather: BR  (mist)
TAF Text: TEMPO 2206/2209 1/4SM FG VV002
Forecast period: 0600 to 0900 UTC 22 August 2014
Forecast type: TEMPORARY: The following changes expected for less than half the time period
Visibility: 0.25 miles (0.40 km)
Ceiling: indefinite ceiling with vertical visibility of 200 feet AGL
Clouds: obscured sky
Weather: FG  (fog)
TAF Text: FM220900 00000KT 1/2SM FG BKN003
Forecast period: 0900 to 1100 UTC 22 August 2014
Forecast type: FROM: standard forecast or significant change
Winds: calm
Visibility: 0.50 miles (0.80 km)
Ceiling: 300 feet AGL
Clouds: broken clouds at 300 feet AGL
Weather: FG  (fog)
TAF Text: FM221100 00000KT 2SM BR SCT005
Forecast period: 1100 to 1400 UTC 22 August 2014
Forecast type: FROM: standard forecast or significant change
Winds: calm
Visibility: 2.00 miles (3.22 km)
Clouds: scattered clouds at 500 feet AGL
Weather: BR  (mist)
TAF Text: FM221400 11006KT P6SM BKN030
Forecast period: 1400 UTC 22 August 2014 to 0600 UTC 23 August 2014
Forecast type: FROM: standard forecast or significant change
Winds: from the ESE (110 degrees) at 7 MPH (6 knots; 3.1 m/s)
Visibility: 6 or more miles (10+ km)
Ceiling: 3000 feet AGL
Clouds: broken clouds at 3000 feet AGL
Weather: no significant weather forecast for this period

Find All Airport Services Find A Hotel Find A Rental Car Find A Golf Course Find A Restaurant $100 Hamburger



FBO's on the Field
FBO Company Facility Photos Services Transportation Aviation Fuel Prices: Prices include tax
Catering Weather Repair Courtesy Rental Type 100LL JetA JetA+ MOGAS 8087
 
Aviation Express Inc.

This FBO has not yet been rated
FS:Shell
Last Updated: Aug-05
Login to update fuel prices
SS:
Contact Aviation Express Inc.More FBO Information
 
Aviation North

This FBO has not yet been rated
FS:Avfuel
Last Updated: Aug-03
Login to update fuel prices
SS:
Contact Aviation NorthMore FBO Information
 
Add another FBO Facility Photos Catering Weather Repair Courtesy Rental Type 100LL JetA JetA+ MOGAS 8087
Services Transportation Aviation Fuel Prices: Prices include tax


GlobalAir.com Airport Resource Center model-print
model-print
model-print
model-print